sensor_id;sensor_type;location;lat;lon;timestamp;temperature;humidity
66594;DHT22;53450;42.584;23.366;2023-05-07T00:00:26;8.34;78.48
66594;DHT22;53450;42.584;23.366;2023-05-07T00:02:52;8.28;78.68
66594;DHT22;53450;42.584;23.366;2023-05-07T00:05:19;8.17;79.38
66594;DHT22;53450;42.584;23.366;2023-05-07T00:07:44;8.14;79.47
66594;DHT22;53450;42.584;23.366;2023-05-07T00:10:10;8.10;79.51
66594;DHT22;53450;42.584;23.366;2023-05-07T00:12:37;8.14;79.67
66594;DHT22;53450;42.584;23.366;2023-05-07T00:15:03;8.16;79.55
66594;DHT22;53450;42.584;23.366;2023-05-07T00:17:29;8.16;79.76
66594;DHT22;53450;42.584;23.366;2023-05-07T00:19:55;8.10;79.84
66594;DHT22;53450;42.584;23.366;2023-05-07T00:22:21;8.10;79.86
66594;DHT22;53450;42.584;23.366;2023-05-07T00:24:46;8.07;79.98
66594;DHT22;53450;42.584;23.366;2023-05-07T00:27:12;8.00;79.94
66594;DHT22;53450;42.584;23.366;2023-05-07T00:29:37;8.09;80.00
66594;DHT22;53450;42.584;23.366;2023-05-07T00:32:03;8.11;79.84
66594;DHT22;53450;42.584;23.366;2023-05-07T00:34:32;8.14;79.93
66594;DHT22;53450;42.584;23.366;2023-05-07T00:36:57;8.16;79.96
66594;DHT22;53450;42.584;23.366;2023-05-07T00:39:23;8.09;79.88
66594;DHT22;53450;42.584;23.366;2023-05-07T00:41:48;8.09;80.15
66594;DHT22;53450;42.584;23.366;2023-05-07T00:44:14;8.00;80.28
66594;DHT22;53450;42.584;23.366;2023-05-07T00:46:40;8.00;80.36
66594;DHT22;53450;42.584;23.366;2023-05-07T00:49:06;8.00;80.22
66594;DHT22;53450;42.584;23.366;2023-05-07T00:51:33;8.09;80.23
66594;DHT22;53450;42.584;23.366;2023-05-07T00:54:00;8.03;80.41
66594;DHT22;53450;42.584;23.366;2023-05-07T00:56:26;7.97;80.50
66594;DHT22;53450;42.584;23.366;2023-05-07T00:58:52;7.76;80.70
66594;DHT22;53450;42.584;23.366;2023-05-07T01:01:18;7.91;80.81
66594;DHT22;53450;42.584;23.366;2023-05-07T01:03:43;7.89;80.63
66594;DHT22;53450;42.584;23.366;2023-05-07T01:06:10;7.96;80.53
66594;DHT22;53450;42.584;23.366;2023-05-07T01:08:41;7.91;80.68
66594;DHT22;53450;42.584;23.366;2023-05-07T01:11:07;7.93;80.87
66594;DHT22;53450;42.584;23.366;2023-05-07T01:13:35;7.90;80.85
66594;DHT22;53450;42.584;23.366;2023-05-07T01:16:02;7.93;80.82
66594;DHT22;53450;42.584;23.366;2023-05-07T01:18:28;7.83;80.97
66594;DHT22;53450;42.584;23.366;2023-05-07T01:20:58;7.82;80.90
66594;DHT22;53450;42.584;23.366;2023-05-07T01:23:25;7.65;81.26
66594;DHT22;53450;42.584;23.366;2023-05-07T01:25:54;7.61;81.49
66594;DHT22;53450;42.584;23.366;2023-05-07T01:28:21;7.72;81.06
66594;DHT22;53450;42.584;23.366;2023-05-07T01:31:03;7.72;81.27
66594;DHT22;53450;42.584;23.366;2023-05-07T01:33:33;7.65;81.14
66594;DHT22;53450;42.584;23.366;2023-05-07T01:36:00;7.55;81.41
66594;DHT22;53450;42.584;23.366;2023-05-07T01:38:29;7.52;81.79
66594;DHT22;53450;42.584;23.366;2023-05-07T01:40:55;7.49;82.02
66594;DHT22;53450;42.584;23.366;2023-05-07T01:43:21;7.49;82.16
66594;DHT22;53450;42.584;23.366;2023-05-07T01:45:47;7.47;82.23
66594;DHT22;53450;42.584;23.366;2023-05-07T01:48:15;7.51;81.95
66594;DHT22;53450;42.584;23.366;2023-05-07T01:50:42;7.52;81.93
66594;DHT22;53450;42.584;23.366;2023-05-07T01:53:08;7.54;82.05
66594;DHT22;53450;42.584;23.366;2023-05-07T01:55:33;7.49;82.19
66594;DHT22;53450;42.584;23.366;2023-05-07T01:57:59;7.17;82.18
66594;DHT22;53450;42.584;23.366;2023-05-07T02:00:25;7.07;82.57
66594;DHT22;53450;42.584;23.366;2023-05-07T02:02:51;7.12;82.02
66594;DHT22;53450;42.584;23.366;2023-05-07T02:05:44;7.31;81.83
66594;DHT22;53450;42.584;23.366;2023-05-07T02:08:23;7.35;81.49
66594;DHT22;53450;42.584;23.366;2023-05-07T02:10:52;7.18;81.83
66594;DHT22;53450;42.584;23.366;2023-05-07T02:13:19;7.07;82.54
66594;DHT22;53450;42.584;23.366;2023-05-07T02:15:47;7.03;82.74
66594;DHT22;53450;42.584;23.366;2023-05-07T02:18:16;7.24;82.04
66594;DHT22;53450;42.584;23.366;2023-05-07T02:20:42;7.34;81.79
66594;DHT22;53450;42.584;23.366;2023-05-07T02:23:08;7.38;81.93
66594;DHT22;53450;42.584;23.366;2023-05-07T02:25:34;7.35;82.06
66594;DHT22;53450;42.584;23.366;2023-05-07T02:27:59;7.21;82.23
66594;DHT22;53450;42.584;23.366;2023-05-07T02:30:38;6.84;82.74
66594;DHT22;53450;42.584;23.366;2023-05-07T02:33:28;6.77;83.56
66594;DHT22;53450;42.584;23.366;2023-05-07T02:36:20;7.05;83.11
66594;DHT22;53450;42.584;23.366;2023-05-07T02:38:58;7.17;82.87
66594;DHT22;53450;42.584;23.366;2023-05-07T02:41:23;7.28;82.80
66594;DHT22;53450;42.584;23.366;2023-05-07T02:43:49;7.17;82.69
66594;DHT22;53450;42.584;23.366;2023-05-07T02:46:40;7.10;82.93
66594;DHT22;53450;42.584;23.366;2023-05-07T02:49:31;7.14;82.73
66594;DHT22;53450;42.584;23.366;2023-05-07T02:51:57;7.12;82.83
66594;DHT22;53450;42.584;23.366;2023-05-07T02:54:23;7.08;83.06
66594;DHT22;53450;42.584;23.366;2023-05-07T02:56:49;7.07;83.35
66594;DHT22;53450;42.584;23.366;2023-05-07T02:59:15;7.01;83.50
66594;DHT22;53450;42.584;23.366;2023-05-07T03:01:41;7.01;83.64
66594;DHT22;53450;42.584;23.366;2023-05-07T03:04:10;6.94;83.80
66594;DHT22;53450;42.584;23.366;2023-05-07T03:06:36;6.91;84.08
66594;DHT22;53450;42.584;23.366;2023-05-07T03:09:02;6.93;84.14
66594;DHT22;53450;42.584;23.366;2023-05-07T03:11:29;6.91;84.24
66594;DHT22;53450;42.584;23.366;2023-05-07T03:13:55;6.91;84.26
66594;DHT22;53450;42.584;23.366;2023-05-07T03:16:21;6.91;84.39
66594;DHT22;53450;42.584;23.366;2023-05-07T03:18:47;6.96;84.34
66594;DHT22;53450;42.584;23.366;2023-05-07T03:21:12;6.96;84.33
66594;DHT22;53450;42.584;23.366;2023-05-07T03:23:38;6.91;84.41
66594;DHT22;53450;42.584;23.366;2023-05-07T03:26:04;6.91;84.46
66594;DHT22;53450;42.584;23.366;2023-05-07T03:28:29;6.90;84.62
66594;DHT22;53450;42.584;23.366;2023-05-07T03:30:59;6.94;84.43
66594;DHT22;53450;42.584;23.366;2023-05-07T03:33:25;6.96;84.57
66594;DHT22;53450;42.584;23.366;2023-05-07T03:35:53;7.03;84.58
66594;DHT22;53450;42.584;23.366;2023-05-07T03:38:22;7.24;84.41
66594;DHT22;53450;42.584;23.366;2023-05-07T03:40:48;7.63;83.20
66594;DHT22;53450;42.584;23.366;2023-05-07T03:43:14;7.97;82.13
66594;DHT22;53450;42.584;23.366;2023-05-07T03:45:45;8.64;80.51
66594;DHT22;53450;42.584;23.366;2023-05-07T03:48:24;9.41;78.30
66594;DHT22;53450;42.584;23.366;2023-05-07T03:50:52;10.16;75.60
66594;DHT22;53450;42.584;23.366;2023-05-07T03:53:19;10.81;74.15
66594;DHT22;53450;42.584;23.366;2023-05-07T03:55:44;11.52;72.13
66594;DHT22;53450;42.584;23.366;2023-05-07T03:58:11;11.84;69.42
66594;DHT22;53450;42.584;23.366;2023-05-07T04:00:36;12.04;68.59
66594;DHT22;53450;42.584;23.366;2023-05-07T04:03:17;12.85;67.00
66594;DHT22;53450;42.584;23.366;2023-05-07T04:05:42;13.57;65.40
66594;DHT22;53450;42.584;23.366;2023-05-07T04:08:08;14.13;63.12
66594;DHT22;53450;42.584;23.366;2023-05-07T04:10:38;14.71;61.22
66594;DHT22;53450;42.584;23.366;2023-05-07T04:13:08;14.66;60.50
66594;DHT22;53450;42.584;23.366;2023-05-07T04:15:35;13.78;62.79
66594;DHT22;53450;42.584;23.366;2023-05-07T04:18:01;12.82;65.65
66594;DHT22;53450;42.584;23.366;2023-05-07T04:20:27;12.16;68.16
66594;DHT22;53450;42.584;23.366;2023-05-07T04:23:00;11.66;70.10
66594;DHT22;53450;42.584;23.366;2023-05-07T04:25:26;11.26;72.03
66594;DHT22;53450;42.584;23.366;2023-05-07T04:27:54;11.11;73.18
66594;DHT22;53450;42.584;23.366;2023-05-07T04:30:24;10.91;74.21
66594;DHT22;53450;42.584;23.366;2023-05-07T04:32:51;10.67;75.21
66594;DHT22;53450;42.584;23.366;2023-05-07T04:35:17;10.52;76.44
66594;DHT22;53450;42.584;23.366;2023-05-07T04:37:43;10.57;76.64
66594;DHT22;53450;42.584;23.366;2023-05-07T04:40:09;10.36;77.89
66594;DHT22;53450;42.584;23.366;2023-05-07T04:42:35;10.23;78.31
66594;DHT22;53450;42.584;23.366;2023-05-07T04:45:02;10.26;78.47
66594;DHT22;53450;42.584;23.366;2023-05-07T04:47:30;10.25;78.74
66594;DHT22;53450;42.584;23.366;2023-05-07T04:49:57;10.39;78.46
66594;DHT22;53450;42.584;23.366;2023-05-07T04:52:23;10.39;78.93
66594;DHT22;53450;42.584;23.366;2023-05-07T04:54:49;10.53;79.04
66594;DHT22;53450;42.584;23.366;2023-05-07T04:57:15;10.68;78.36
66594;DHT22;53450;42.584;23.366;2023-05-07T04:59:43;10.57;79.44
66594;DHT22;53450;42.584;23.366;2023-05-07T05:02:12;10.52;79.48
66594;DHT22;53450;42.584;23.366;2023-05-07T05:04:38;10.49;79.82
66594;DHT22;53450;42.584;23.366;2023-05-07T05:07:07;10.64;79.78
66594;DHT22;53450;42.584;23.366;2023-05-07T05:09:33;10.74;79.18
66594;DHT22;53450;42.584;23.366;2023-05-07T05:12:09;10.80;78.88
66594;DHT22;53450;42.584;23.366;2023-05-07T05:14:36;10.95;78.28
66594;DHT22;53450;42.584;23.366;2023-05-07T05:17:03;11.03;76.40
66594;DHT22;53450;42.584;23.366;2023-05-07T05:19:29;11.14;76.73
66594;DHT22;53450;42.584;23.366;2023-05-07T05:21:54;11.19;76.79
66594;DHT22;53450;42.584;23.366;2023-05-07T05:24:45;11.18;76.44
66594;DHT22;53450;42.584;23.366;2023-05-07T05:27:36;11.29;76.11
66594;DHT22;53450;42.584;23.366;2023-05-07T05:30:04;11.40;75.49
66594;DHT22;53450;42.584;23.366;2023-05-07T05:32:32;11.53;74.72
66594;DHT22;53450;42.584;23.366;2023-05-07T05:34:58;11.73;74.59
66594;DHT22;53450;42.584;23.366;2023-05-07T05:37:24;11.86;74.54
66594;DHT22;53450;42.584;23.366;2023-05-07T05:39:50;12.00;73.79
66594;DHT22;53450;42.584;23.366;2023-05-07T05:42:16;12.10;71.81
66594;DHT22;53450;42.584;23.366;2023-05-07T05:44:42;12.27;71.11
66594;DHT22;53450;42.584;23.366;2023-05-07T05:47:08;12.35;71.47
66594;DHT22;53450;42.584;23.366;2023-05-07T05:49:34;12.48;72.09
66594;DHT22;53450;42.584;23.366;2023-05-07T05:52:02;12.58;73.46
66594;DHT22;53450;42.584;23.366;2023-05-07T05:54:28;12.69;72.47
66594;DHT22;53450;42.584;23.366;2023-05-07T05:56:54;12.93;71.53
66594;DHT22;53450;42.584;23.366;2023-05-07T05:59:19;13.03;71.58
66594;DHT22;53450;42.584;23.366;2023-05-07T06:01:46;12.96;72.21
66594;DHT22;53450;42.584;23.366;2023-05-07T06:04:11;12.99;72.68
66594;DHT22;53450;42.584;23.366;2023-05-07T06:06:38;13.04;72.79
66594;DHT22;53450;42.584;23.366;2023-05-07T06:09:04;13.10;72.38
66594;DHT22;53450;42.584;23.366;2023-05-07T06:11:36;13.10;72.47
66594;DHT22;53450;42.584;23.366;2023-05-07T06:14:02;13.14;73.07
66594;DHT22;53450;42.584;23.366;2023-05-07T06:16:29;13.37;72.09
66594;DHT22;53450;42.584;23.366;2023-05-07T06:18:55;13.43;71.87
66594;DHT22;53450;42.584;23.366;2023-05-07T06:21:21;13.46;71.77
66594;DHT22;53450;42.584;23.366;2023-05-07T06:23:47;13.54;70.32
66594;DHT22;53450;42.584;23.366;2023-05-07T06:26:13;13.61;70.35
66594;DHT22;53450;42.584;23.366;2023-05-07T06:28:41;13.48;70.72
66594;DHT22;53450;42.584;23.366;2023-05-07T06:31:30;13.67;69.52
66594;DHT22;53450;42.584;23.366;2023-05-07T06:34:07;13.85;70.50
66594;DHT22;53450;42.584;23.366;2023-05-07T06:36:36;13.90;69.10
66594;DHT22;53450;42.584;23.366;2023-05-07T06:39:10;13.94;68.87
66594;DHT22;53450;42.584;23.366;2023-05-07T06:41:36;13.94;68.81
66594;DHT22;53450;42.584;23.366;2023-05-07T06:44:07;13.95;67.98
66594;DHT22;53450;42.584;23.366;2023-05-07T06:46:41;14.13;68.22
66594;DHT22;53450;42.584;23.366;2023-05-07T06:49:07;14.16;68.51
66594;DHT22;53450;42.584;23.366;2023-05-07T06:51:33;14.09;68.62
66594;DHT22;53450;42.584;23.366;2023-05-07T06:54:02;14.26;67.60
66594;DHT22;53450;42.584;23.366;2023-05-07T06:56:31;14.26;67.23
66594;DHT22;53450;42.584;23.366;2023-05-07T06:58:56;14.32;66.20
66594;DHT22;53450;42.584;23.366;2023-05-07T07:01:22;14.39;66.42
66594;DHT22;53450;42.584;23.366;2023-05-07T07:03:48;14.48;66.01
66594;DHT22;53450;42.584;23.366;2023-05-07T07:06:14;14.67;65.03
66594;DHT22;53450;42.584;23.366;2023-05-07T07:08:40;14.74;64.28
66594;DHT22;53450;42.584;23.366;2023-05-07T07:11:06;14.88;63.84
66594;DHT22;53450;42.584;23.366;2023-05-07T07:13:32;15.06;63.35
66594;DHT22;53450;42.584;23.366;2023-05-07T07:15:58;15.16;64.90
66594;DHT22;53450;42.584;23.366;2023-05-07T07:18:23;15.14;62.73
66594;DHT22;53450;42.584;23.366;2023-05-07T07:20:50;15.32;63.38
66594;DHT22;53450;42.584;23.366;2023-05-07T07:23:16;15.40;62.55
66594;DHT22;53450;42.584;23.366;2023-05-07T07:25:41;15.45;61.48
66594;DHT22;53450;42.584;23.366;2023-05-07T07:28:07;15.46;62.12
66594;DHT22;53450;42.584;23.366;2023-05-07T07:30:35;15.55;61.66
66594;DHT22;53450;42.584;23.366;2023-05-07T07:33:01;15.49;61.84
66594;DHT22;53450;42.584;23.366;2023-05-07T07:35:34;15.57;62.45
66594;DHT22;53450;42.584;23.366;2023-05-07T07:37:59;15.53;60.28
66594;DHT22;53450;42.584;23.366;2023-05-07T07:40:25;15.60;59.29
66594;DHT22;53450;42.584;23.366;2023-05-07T07:42:52;15.73;57.50
66594;DHT22;53450;42.584;23.366;2023-05-07T07:45:18;15.77;58.48
66594;DHT22;53450;42.584;23.366;2023-05-07T07:47:47;15.82;59.83
66594;DHT22;53450;42.584;23.366;2023-05-07T07:50:16;16.20;59.53
66594;DHT22;53450;42.584;23.366;2023-05-07T07:52:42;16.35;57.71
66594;DHT22;53450;42.584;23.366;2023-05-07T07:55:08;16.61;57.09
66594;DHT22;53450;42.584;23.366;2023-05-07T07:57:37;16.66;57.41
66594;DHT22;53450;42.584;23.366;2023-05-07T08:00:04;16.77;56.31
66594;DHT22;53450;42.584;23.366;2023-05-07T08:02:42;16.77;56.42
66594;DHT22;53450;42.584;23.366;2023-05-07T08:05:15;16.92;55.04
66594;DHT22;53450;42.584;23.366;2023-05-07T08:07:42;16.92;55.63
66594;DHT22;53450;42.584;23.366;2023-05-07T08:10:09;16.75;57.67
66594;DHT22;53450;42.584;23.366;2023-05-07T08:12:35;16.73;57.66
66594;DHT22;53450;42.584;23.366;2023-05-07T08:15:01;16.62;56.75
66594;DHT22;53450;42.584;23.366;2023-05-07T08:17:27;16.62;58.75
66594;DHT22;53450;42.584;23.366;2023-05-07T08:19:55;16.77;56.36
66594;DHT22;53450;42.584;23.366;2023-05-07T08:22:21;16.87;57.46
66594;DHT22;53450;42.584;23.366;2023-05-07T08:24:49;17.23;56.43
66594;DHT22;53450;42.584;23.366;2023-05-07T08:27:14;17.27;53.63
66594;DHT22;53450;42.584;23.366;2023-05-07T08:29:41;17.47;55.32
66594;DHT22;53450;42.584;23.366;2023-05-07T08:32:07;17.64;55.96
66594;DHT22;53450;42.584;23.366;2023-05-07T08:34:33;17.71;54.77
66594;DHT22;53450;42.584;23.366;2023-05-07T08:37:02;17.82;53.80
66594;DHT22;53450;42.584;23.366;2023-05-07T08:39:28;17.92;51.64
66594;DHT22;53450;42.584;23.366;2023-05-07T08:41:55;17.71;52.91
66594;DHT22;53450;42.584;23.366;2023-05-07T08:44:26;17.83;54.37
66594;DHT22;53450;42.584;23.366;2023-05-07T08:46:56;17.71;52.48
66594;DHT22;53450;42.584;23.366;2023-05-07T08:49:23;17.68;52.96
66594;DHT22;53450;42.584;23.366;2023-05-07T08:51:50;17.72;52.29
66594;DHT22;53450;42.584;23.366;2023-05-07T08:54:20;17.47;52.60
66594;DHT22;53450;42.584;23.366;2023-05-07T08:56:47;17.55;55.42
66594;DHT22;53450;42.584;23.366;2023-05-07T08:59:13;17.93;54.01
66594;DHT22;53450;42.584;23.366;2023-05-07T09:02:05;17.93;50.99
66594;DHT22;53450;42.584;23.366;2023-05-07T09:04:58;17.92;52.03
66594;DHT22;53450;42.584;23.366;2023-05-07T09:07:49;17.96;52.05
66594;DHT22;53450;42.584;23.366;2023-05-07T09:10:20;18.12;51.16
66594;DHT22;53450;42.584;23.366;2023-05-07T09:12:47;18.40;49.74
66594;DHT22;53450;42.584;23.366;2023-05-07T09:15:15;18.34;50.12
66594;DHT22;53450;42.584;23.366;2023-05-07T09:17:43;18.34;48.27
66594;DHT22;53450;42.584;23.366;2023-05-07T09:20:09;18.50;46.78
66594;DHT22;53450;42.584;23.366;2023-05-07T09:22:38;18.58;47.00
66594;DHT22;53450;42.584;23.366;2023-05-07T09:25:08;18.85;46.67
66594;DHT22;53450;42.584;23.366;2023-05-07T09:27:36;18.87;48.78
66594;DHT22;53450;42.584;23.366;2023-05-07T09:30:04;18.97;48.15
66594;DHT22;53450;42.584;23.366;2023-05-07T09:32:34;19.01;47.27
66594;DHT22;53450;42.584;23.366;2023-05-07T09:35:01;19.11;47.10
66594;DHT22;53450;42.584;23.366;2023-05-07T09:37:30;19.15;47.37
66594;DHT22;53450;42.584;23.366;2023-05-07T09:39:56;19.20;46.90
66594;DHT22;53450;42.584;23.366;2023-05-07T09:42:24;19.26;45.45
66594;DHT22;53450;42.584;23.366;2023-05-07T09:45:00;18.84;44.29
66594;DHT22;53450;42.584;23.366;2023-05-07T09:47:32;18.70;45.35
66594;DHT22;53450;42.584;23.366;2023-05-07T09:50:03;18.72;44.44
66594;DHT22;53450;42.584;23.366;2023-05-07T09:52:31;18.79;45.92
66594;DHT22;53450;42.584;23.366;2023-05-07T09:55:04;18.92;46.18
66594;DHT22;53450;42.584;23.366;2023-05-07T09:57:32;19.15;47.44
66594;DHT22;53450;42.584;23.366;2023-05-07T10:00:03;19.08;42.17
66594;DHT22;53450;42.584;23.366;2023-05-07T10:02:47;19.14;42.54
66594;DHT22;53450;42.584;23.366;2023-05-07T10:05:17;18.88;42.96
66594;DHT22;53450;42.584;23.366;2023-05-07T10:07:44;18.81;45.28
66594;DHT22;53450;42.584;23.366;2023-05-07T10:10:10;18.77;46.33
66594;DHT22;53450;42.584;23.366;2023-05-07T10:12:40;18.98;46.36
66594;DHT22;53450;42.584;23.366;2023-05-07T10:15:12;18.95;44.50
66594;DHT22;53450;42.584;23.366;2023-05-07T10:17:41;18.85;44.96
66594;DHT22;53450;42.584;23.366;2023-05-07T10:20:09;18.88;45.94
66594;DHT22;53450;42.584;23.366;2023-05-07T10:22:41;19.15;44.12
66594;DHT22;53450;42.584;23.366;2023-05-07T10:25:34;19.25;43.97
66594;DHT22;53450;42.584;23.366;2023-05-07T10:28:26;19.15;43.43
66594;DHT22;53450;42.584;23.366;2023-05-07T10:30:59;19.25;44.16
66594;DHT22;53450;42.584;23.366;2023-05-07T10:33:32;19.49;44.50
66594;DHT22;53450;42.584;23.366;2023-05-07T10:36:01;19.57;43.61
66594;DHT22;53450;42.584;23.366;2023-05-07T10:38:30;19.74;43.43
66594;DHT22;53450;42.584;23.366;2023-05-07T10:40:59;19.37;43.86
66594;DHT22;53450;42.584;23.366;2023-05-07T10:43:24;19.56;43.69
66594;DHT22;53450;42.584;23.366;2023-05-07T10:46:19;19.65;43.82
66594;DHT22;53450;42.584;23.366;2023-05-07T10:51:42;20.05;42.30
66594;DHT22;53450;42.584;23.366;2023-05-07T10:54:21;20.45;42.92
66594;DHT22;53450;42.584;23.366;2023-05-07T10:57:34;20.49;42.94
66594;DHT22;53450;42.584;23.366;2023-05-07T11:05:31;20.11;43.26
66594;DHT22;53450;42.584;23.366;2023-05-07T11:08:09;19.87;43.96
66594;DHT22;53450;42.584;23.366;2023-05-07T11:10:53;19.74;44.19
66594;DHT22;53450;42.584;23.366;2023-05-07T11:13:47;19.71;44.00
66594;DHT22;53450;42.584;23.366;2023-05-07T11:16:24;19.87;45.41
66594;DHT22;53450;42.584;23.366;2023-05-07T11:18:59;19.87;44.27
66594;DHT22;53450;42.584;23.366;2023-05-07T11:21:36;19.88;43.88
66594;DHT22;53450;42.584;23.366;2023-05-07T11:24:39;20.10;43.93
66594;DHT22;53450;42.584;23.366;2023-05-07T11:27:30;20.08;42.87
66594;DHT22;53450;42.584;23.366;2023-05-07T11:30:22;20.20;43.20
66594;DHT22;53450;42.584;23.366;2023-05-07T11:32:48;20.62;43.37
66594;DHT22;53450;42.584;23.366;2023-05-07T11:35:15;20.86;42.35
66594;DHT22;53450;42.584;23.366;2023-05-07T11:37:44;20.92;42.53
66594;DHT22;53450;42.584;23.366;2023-05-07T11:40:12;20.82;41.86
66594;DHT22;53450;42.584;23.366;2023-05-07T11:42:40;20.68;41.55
66594;DHT22;53450;42.584;23.366;2023-05-07T11:45:08;20.65;41.17
66594;DHT22;53450;42.584;23.366;2023-05-07T11:47:34;20.84;41.61
66594;DHT22;53450;42.584;23.366;2023-05-07T11:50:05;20.90;41.29
66594;DHT22;53450;42.584;23.366;2023-05-07T11:52:31;20.79;41.62
66594;DHT22;53450;42.584;23.366;2023-05-07T11:54:59;20.52;42.84
66594;DHT22;53450;42.584;23.366;2023-05-07T11:57:54;20.38;42.96
66594;DHT22;53450;42.584;23.366;2023-05-07T12:00:20;20.14;43.10
66594;DHT22;53450;42.584;23.366;2023-05-07T12:02:46;20.20;42.17
66594;DHT22;53450;42.584;23.366;2023-05-07T12:05:12;20.46;42.08
66594;DHT22;53450;42.584;23.366;2023-05-07T12:07:37;20.75;42.27
66594;DHT22;53450;42.584;23.366;2023-05-07T12:10:06;20.89;40.61
66594;DHT22;53450;42.584;23.366;2023-05-07T12:12:38;21.04;41.10
66594;DHT22;53450;42.584;23.366;2023-05-07T12:15:05;21.04;40.40
66594;DHT22;53450;42.584;23.366;2023-05-07T12:17:30;20.87;40.70
66594;DHT22;53450;42.584;23.366;2023-05-07T12:19:56;21.08;40.90
66594;DHT22;53450;42.584;23.366;2023-05-07T12:22:22;21.24;41.94
66594;DHT22;53450;42.584;23.366;2023-05-07T12:24:57;21.40;40.84
66594;DHT22;53450;42.584;23.366;2023-05-07T12:27:24;21.52;40.91
66594;DHT22;53450;42.584;23.366;2023-05-07T12:29:50;21.51;39.59
66594;DHT22;53450;42.584;23.366;2023-05-07T12:32:17;21.41;39.89
66594;DHT22;53450;42.584;23.366;2023-05-07T12:34:49;21.57;39.84
66594;DHT22;53450;42.584;23.366;2023-05-07T12:37:15;21.65;39.57
66594;DHT22;53450;42.584;23.366;2023-05-07T12:39:48;21.55;39.77
66594;DHT22;53450;42.584;23.366;2023-05-07T12:42:40;21.52;40.85
66594;DHT22;53450;42.584;23.366;2023-05-07T12:45:16;21.54;40.32
66594;DHT22;53450;42.584;23.366;2023-05-07T12:48:09;21.78;39.31
66594;DHT22;53450;42.584;23.366;2023-05-07T12:50:35;21.98;39.12
66594;DHT22;53450;42.584;23.366;2023-05-07T12:53:03;21.86;39.53
66594;DHT22;53450;42.584;23.366;2023-05-07T12:55:31;22.02;38.61
66594;DHT22;53450;42.584;23.366;2023-05-07T12:58:00;21.86;38.33
66594;DHT22;53450;42.584;23.366;2023-05-07T13:00:53;21.81;37.90
66594;DHT22;53450;42.584;23.366;2023-05-07T13:03:31;21.75;37.98
66594;DHT22;53450;42.584;23.366;2023-05-07T13:06:00;21.95;38.98
66594;DHT22;53450;42.584;23.366;2023-05-07T13:08:34;22.20;38.60
66594;DHT22;53450;42.584;23.366;2023-05-07T13:11:03;22.09;38.32
66594;DHT22;53450;42.584;23.366;2023-05-07T13:13:32;21.99;37.88
66594;DHT22;53450;42.584;23.366;2023-05-07T13:15:58;21.81;37.74
66594;DHT22;53450;42.584;23.366;2023-05-07T13:18:25;21.95;37.19
66594;DHT22;53450;42.584;23.366;2023-05-07T13:20:52;21.99;36.81
66594;DHT22;53450;42.584;23.366;2023-05-07T13:23:17;21.92;37.17
66594;DHT22;53450;42.584;23.366;2023-05-07T13:25:43;22.17;37.35
66594;DHT22;53450;42.584;23.366;2023-05-07T13:28:11;22.24;36.95
66594;DHT22;53450;42.584;23.366;2023-05-07T13:31:02;22.05;38.00
66594;DHT22;53450;42.584;23.366;2023-05-07T13:33:28;21.38;37.63
66594;DHT22;53450;42.584;23.366;2023-05-07T13:35:53;21.28;38.77
66594;DHT22;53450;42.584;23.366;2023-05-07T13:38:19;21.14;37.35
66594;DHT22;53450;42.584;23.366;2023-05-07T13:40:44;21.14;38.27
66594;DHT22;53450;42.584;23.366;2023-05-07T13:43:10;21.10;38.42
66594;DHT22;53450;42.584;23.366;2023-05-07T13:45:36;21.19;38.93
66594;DHT22;53450;42.584;23.366;2023-05-07T13:48:01;21.11;39.04
66594;DHT22;53450;42.584;23.366;2023-05-07T13:50:27;21.45;36.73
66594;DHT22;53450;42.584;23.366;2023-05-07T13:52:55;21.69;37.35
66594;DHT22;53450;42.584;23.366;2023-05-07T13:55:22;21.54;38.01
66594;DHT22;53450;42.584;23.366;2023-05-07T13:57:58;21.51;36.52
66594;DHT22;53450;42.584;23.366;2023-05-07T14:00:25;21.62;37.79
66594;DHT22;53450;42.584;23.366;2023-05-07T14:02:51;21.65;36.59
66594;DHT22;53450;42.584;23.366;2023-05-07T14:05:17;21.72;37.62
66594;DHT22;53450;42.584;23.366;2023-05-07T14:07:43;21.59;37.98
66594;DHT22;53450;42.584;23.366;2023-05-07T14:10:09;21.48;37.60
66594;DHT22;53450;42.584;23.366;2023-05-07T14:12:36;21.45;37.38
66594;DHT22;53450;42.584;23.366;2023-05-07T14:15:03;21.44;37.14
66594;DHT22;53450;42.584;23.366;2023-05-07T14:17:28;21.59;37.27
66594;DHT22;53450;42.584;23.366;2023-05-07T14:19:54;21.77;37.03
66594;DHT22;53450;42.584;23.366;2023-05-07T14:22:23;22.10;36.21
66594;DHT22;53450;42.584;23.366;2023-05-07T14:24:49;22.44;34.92
66594;DHT22;53450;42.584;23.366;2023-05-07T14:27:15;22.14;34.67
66594;DHT22;53450;42.584;23.366;2023-05-07T14:29:41;22.09;36.25
66594;DHT22;53450;42.584;23.366;2023-05-07T14:32:07;22.03;35.74
66594;DHT22;53450;42.584;23.366;2023-05-07T14:34:33;22.03;35.52
66594;DHT22;53450;42.584;23.366;2023-05-07T14:36:59;22.09;34.73
66594;DHT22;53450;42.584;23.366;2023-05-07T14:39:25;21.93;35.38
66594;DHT22;53450;42.584;23.366;2023-05-07T14:41:51;21.88;35.94
66594;DHT22;53450;42.584;23.366;2023-05-07T14:44:17;22.06;34.06
66594;DHT22;53450;42.584;23.366;2023-05-07T14:46:42;22.17;34.75
66594;DHT22;53450;42.584;23.366;2023-05-07T14:49:10;22.35;34.29
66594;DHT22;53450;42.584;23.366;2023-05-07T14:51:45;22.35;34.30
66594;DHT22;53450;42.584;23.366;2023-05-07T14:54:11;22.36;34.54
66594;DHT22;53450;42.584;23.366;2023-05-07T14:56:38;22.50;35.22
66594;DHT22;53450;42.584;23.366;2023-05-07T14:59:03;22.47;33.35
66594;DHT22;53450;42.584;23.366;2023-05-07T15:01:29;22.58;33.48
66594;DHT22;53450;42.584;23.366;2023-05-07T15:03:55;22.24;34.05
66594;DHT22;53450;42.584;23.366;2023-05-07T15:06:21;22.37;34.39
66594;DHT22;53450;42.584;23.366;2023-05-07T15:08:47;22.19;33.80
66594;DHT22;53450;42.584;23.366;2023-05-07T15:11:14;21.95;34.04
66594;DHT22;53450;42.584;23.366;2023-05-07T15:13:44;21.95;35.66
66594;DHT22;53450;42.584;23.366;2023-05-07T15:16:10;21.75;34.48
66594;DHT22;53450;42.584;23.366;2023-05-07T15:18:38;21.54;34.86
66594;DHT22;53450;42.584;23.366;2023-05-07T15:21:04;21.54;35.30
66594;DHT22;53450;42.584;23.366;2023-05-07T15:23:31;21.62;35.24
66594;DHT22;53450;42.584;23.366;2023-05-07T15:26:22;21.54;36.17
66594;DHT22;53450;42.584;23.366;2023-05-07T15:29:13;21.28;36.35
66594;DHT22;53450;42.584;23.366;2023-05-07T15:31:39;21.11;37.36
66594;DHT22;53450;42.584;23.366;2023-05-07T15:34:05;21.07;37.23
66594;DHT22;53450;42.584;23.366;2023-05-07T15:36:31;21.11;36.72
66594;DHT22;53450;42.584;23.366;2023-05-07T15:38:56;21.17;36.53
66594;DHT22;53450;42.584;23.366;2023-05-07T15:41:22;21.10;36.73